sensor_id;sensor_type;location;lat;lon;timestamp;pressure;altitude;pressure_sealevel;temperature;humidity
84797;BME280;75028;51.374;21.078;2024-01-16T00:01:58;97461.66;;;-2.29;78.48
84797;BME280;75028;51.374;21.078;2024-01-16T00:04:24;97450.84;;;-2.34;78.06
84797;BME280;75028;51.374;21.078;2024-01-16T00:06:52;97461.78;;;-2.30;78.04
84797;BME280;75028;51.374;21.078;2024-01-16T00:09:18;97475.50;;;-2.41;77.83
84797;BME280;75028;51.374;21.078;2024-01-16T00:11:44;97479.00;;;-2.42;77.80
84797;BME280;75028;51.374;21.078;2024-01-16T00:14:10;97479.19;;;-2.32;76.63
84797;BME280;75028;51.374;21.078;2024-01-16T00:16:43;97482.22;;;-2.38;77.98
84797;BME280;75028;51.374;21.078;2024-01-16T00:19:10;97486.06;;;-2.44;78.67
84797;BME280;75028;51.374;21.078;2024-01-16T00:21:41;97493.84;;;-2.44;77.53
84797;BME280;75028;51.374;21.078;2024-01-16T00:24:07;97495.81;;;-2.47;77.08
84797;BME280;75028;51.374;21.078;2024-01-16T00:26:34;97500.97;;;-2.47;78.04
84797;BME280;75028;51.374;21.078;2024-01-16T00:28:59;97503.03;;;-2.40;77.15
84797;BME280;75028;51.374;21.078;2024-01-16T00:31:26;97515.00;;;-2.39;78.46
84797;BME280;75028;51.374;21.078;2024-01-16T00:33:52;97518.47;;;-2.27;78.28
84797;BME280;75028;51.374;21.078;2024-01-16T00:36:18;97518.31;;;-2.13;78.31
84797;BME280;75028;51.374;21.078;2024-01-16T00:38:44;97526.25;;;-2.04;78.21
84797;BME280;75028;51.374;21.078;2024-01-16T00:41:15;97531.69;;;-1.96;76.58
84797;BME280;75028;51.374;21.078;2024-01-16T00:43:42;97528.88;;;-1.93;77.58
84797;BME280;75028;51.374;21.078;2024-01-16T00:46:08;97535.91;;;-1.95;77.42
84797;BME280;75028;51.374;21.078;2024-01-16T00:48:34;97543.84;;;-1.85;76.42
84797;BME280;75028;51.374;21.078;2024-01-16T00:51:00;97553.03;;;-1.81;76.25
84797;BME280;75028;51.374;21.078;2024-01-16T00:53:26;97554.94;;;-1.72;76.20
84797;BME280;75028;51.374;21.078;2024-01-16T00:55:53;97555.88;;;-1.73;77.03
84797;BME280;75028;51.374;21.078;2024-01-16T00:58:21;97561.78;;;-1.71;77.19
84797;BME280;75028;51.374;21.078;2024-01-16T01:00:48;97564.38;;;-1.71;76.57
84797;BME280;75028;51.374;21.078;2024-01-16T01:03:14;97567.09;;;-1.73;76.69
84797;BME280;75028;51.374;21.078;2024-01-16T01:05:40;97571.66;;;-1.76;77.75
84797;BME280;75028;51.374;21.078;2024-01-16T01:08:06;97572.47;;;-1.76;77.14
84797;BME280;75028;51.374;21.078;2024-01-16T01:10:33;97569.06;;;-1.76;75.90
84797;BME280;75028;51.374;21.078;2024-01-16T01:12:59;97581.44;;;-1.69;75.85
84797;BME280;75028;51.374;21.078;2024-01-16T01:15:25;97573.44;;;-1.77;77.80
84797;BME280;75028;51.374;21.078;2024-01-16T01:17:51;97581.66;;;-1.72;76.62
84797;BME280;75028;51.374;21.078;2024-01-16T01:20:18;97584.38;;;-1.73;77.08
84797;BME280;75028;51.374;21.078;2024-01-16T01:22:45;97588.38;;;-1.69;75.78
84797;BME280;75028;51.374;21.078;2024-01-16T01:25:12;97586.63;;;-1.69;75.44
84797;BME280;75028;51.374;21.078;2024-01-16T01:27:39;97582.97;;;-1.66;76.40
84797;BME280;75028;51.374;21.078;2024-01-16T01:30:09;97580.72;;;-1.71;75.89
84797;BME280;75028;51.374;21.078;2024-01-16T01:32:38;97595.13;;;-1.67;75.37
84797;BME280;75028;51.374;21.078;2024-01-16T01:35:05;97593.78;;;-1.72;75.82
84797;BME280;75028;51.374;21.078;2024-01-16T01:37:31;97600.63;;;-1.71;76.11
84797;BME280;75028;51.374;21.078;2024-01-16T01:39:58;97603.22;;;-1.71;76.74
84797;BME280;75028;51.374;21.078;2024-01-16T01:42:23;97598.50;;;-1.77;76.22
84797;BME280;75028;51.374;21.078;2024-01-16T01:44:50;97611.91;;;-1.72;75.42
84797;BME280;75028;51.374;21.078;2024-01-16T01:47:15;97618.03;;;-1.73;75.45
84797;BME280;75028;51.374;21.078;2024-01-16T01:49:42;97624.88;;;-1.72;77.53
84797;BME280;75028;51.374;21.078;2024-01-16T01:52:08;97622.28;;;-1.72;76.62
84797;BME280;75028;51.374;21.078;2024-01-16T01:54:36;97631.72;;;-1.71;80.29
84797;BME280;75028;51.374;21.078;2024-01-16T01:57:02;97638.66;;;-1.72;77.09
84797;BME280;75028;51.374;21.078;2024-01-16T01:59:29;97637.81;;;-1.72;78.08
84797;BME280;75028;51.374;21.078;2024-01-16T02:01:55;97645.59;;;-1.72;76.67
84797;BME280;75028;51.374;21.078;2024-01-16T02:04:22;97638.19;;;-1.77;76.57
84797;BME280;75028;51.374;21.078;2024-01-16T02:06:48;97660.81;;;-1.68;75.51
84797;BME280;75028;51.374;21.078;2024-01-16T02:09:14;97666.81;;;-1.67;77.51
84797;BME280;75028;51.374;21.078;2024-01-16T02:11:41;97654.59;;;-1.65;77.47
84797;BME280;75028;51.374;21.078;2024-01-16T02:14:07;97663.28;;;-1.66;76.92
84797;BME280;75028;51.374;21.078;2024-01-16T02:16:38;97658.09;;;-1.66;76.79
84797;BME280;75028;51.374;21.078;2024-01-16T02:19:04;97670.94;;;-1.65;76.64
84797;BME280;75028;51.374;21.078;2024-01-16T02:21:46;97667.78;;;-1.68;77.80
84797;BME280;75028;51.374;21.078;2024-01-16T02:24:17;97674.69;;;-1.69;78.17
84797;BME280;75028;51.374;21.078;2024-01-16T02:26:43;97677.28;;;-1.69;77.66
84797;BME280;75028;51.374;21.078;2024-01-16T02:29:10;97685.91;;;-1.68;77.52
84797;BME280;75028;51.374;21.078;2024-01-16T02:31:36;97683.41;;;-1.70;77.55
84797;BME280;75028;51.374;21.078;2024-01-16T02:34:02;97692.00;;;-1.69;77.86
84797;BME280;75028;51.374;21.078;2024-01-16T02:36:29;97694.81;;;-1.72;77.64
84797;BME280;75028;51.374;21.078;2024-01-16T02:38:56;97704.25;;;-1.71;78.49
84797;BME280;75028;51.374;21.078;2024-01-16T02:41:22;97711.28;;;-1.73;78.58
84797;BME280;75028;51.374;21.078;2024-01-16T02:43:48;97702.31;;;-1.80;78.25
84797;BME280;75028;51.374;21.078;2024-01-16T02:46:14;97711.41;;;-1.75;77.76
84797;BME280;75028;51.374;21.078;2024-01-16T02:48:40;97719.50;;;-1.79;78.50
84797;BME280;75028;51.374;21.078;2024-01-16T02:51:08;97723.88;;;-1.80;77.71
84797;BME280;75028;51.374;21.078;2024-01-16T02:53:34;97715.78;;;-1.88;76.51
84797;BME280;75028;51.374;21.078;2024-01-16T02:56:01;97733.09;;;-1.88;77.28
84797;BME280;75028;51.374;21.078;2024-01-16T02:58:28;97733.44;;;-1.93;78.58
84797;BME280;75028;51.374;21.078;2024-01-16T03:00:54;97725.56;;;-1.91;78.01
84797;BME280;75028;51.374;21.078;2024-01-16T03:03:21;97739.44;;;-1.92;77.16
84797;BME280;75028;51.374;21.078;2024-01-16T03:05:47;97737.97;;;-1.96;77.57
84797;BME280;75028;51.374;21.078;2024-01-16T03:08:13;97742.97;;;-2.06;77.52
84797;BME280;75028;51.374;21.078;2024-01-16T03:10:39;97742.13;;;-2.06;78.25
84797;BME280;75028;51.374;21.078;2024-01-16T03:13:06;97745.28;;;-2.14;76.92
84797;BME280;75028;51.374;21.078;2024-01-16T03:15:31;97752.31;;;-2.16;77.81
84797;BME280;75028;51.374;21.078;2024-01-16T03:17:58;97744.84;;;-2.20;77.10
84797;BME280;75028;51.374;21.078;2024-01-16T03:20:24;97748.78;;;-2.27;78.16
84797;BME280;75028;51.374;21.078;2024-01-16T03:22:50;97748.59;;;-2.37;77.26
84797;BME280;75028;51.374;21.078;2024-01-16T03:25:16;97761.53;;;-2.37;77.03
84797;BME280;75028;51.374;21.078;2024-01-16T03:27:42;97763.28;;;-2.37;76.95
84797;BME280;75028;51.374;21.078;2024-01-16T03:30:10;97761.84;;;-2.41;78.27
84797;BME280;75028;51.374;21.078;2024-01-16T03:32:39;97765.28;;;-2.41;77.08
84797;BME280;75028;51.374;21.078;2024-01-16T03:35:06;97770.97;;;-2.48;78.54
84797;BME280;75028;51.374;21.078;2024-01-16T03:37:33;97778.09;;;-2.52;78.02
84797;BME280;75028;51.374;21.078;2024-01-16T03:40:00;97783.78;;;-2.59;77.93
84797;BME280;75028;51.374;21.078;2024-01-16T03:42:26;97785.22;;;-2.68;77.46
84797;BME280;75028;51.374;21.078;2024-01-16T03:44:53;97790.50;;;-2.70;77.79
84797;BME280;75028;51.374;21.078;2024-01-16T03:47:19;97784.19;;;-2.78;78.23
84797;BME280;75028;51.374;21.078;2024-01-16T03:49:45;97792.13;;;-2.94;77.43
84797;BME280;75028;51.374;21.078;2024-01-16T03:52:12;97797.13;;;-3.05;77.49
84797;BME280;75028;51.374;21.078;2024-01-16T03:54:38;97812.53;;;-3.03;79.13
84797;BME280;75028;51.374;21.078;2024-01-16T03:57:04;97818.41;;;-3.14;79.86
84797;BME280;75028;51.374;21.078;2024-01-16T03:59:30;97817.09;;;-3.07;79.05
84797;BME280;75028;51.374;21.078;2024-01-16T04:01:56;97815.84;;;-3.14;79.04
84797;BME280;75028;51.374;21.078;2024-01-16T04:04:22;97816.06;;;-3.31;80.08
84797;BME280;75028;51.374;21.078;2024-01-16T04:06:49;97828.88;;;-3.29;80.40
84797;BME280;75028;51.374;21.078;2024-01-16T04:09:14;97829.09;;;-3.32;80.77
84797;BME280;75028;51.374;21.078;2024-01-16T04:11:41;97834.34;;;-3.34;80.99
84797;BME280;75028;51.374;21.078;2024-01-16T04:14:07;97836.28;;;-3.37;81.03
84797;BME280;75028;51.374;21.078;2024-01-16T04:16:33;97838.16;;;-3.39;81.09
84797;BME280;75028;51.374;21.078;2024-01-16T04:18:59;97831.69;;;-3.46;80.82
84797;BME280;75028;51.374;21.078;2024-01-16T04:21:25;97834.19;;;-3.59;81.32
84797;BME280;75028;51.374;21.078;2024-01-16T04:23:51;97838.28;;;-3.69;81.76
84797;BME280;75028;51.374;21.078;2024-01-16T04:26:18;97848.06;;;-3.74;81.77
84797;BME280;75028;51.374;21.078;2024-01-16T04:28:44;97844.81;;;-3.77;82.29
84797;BME280;75028;51.374;21.078;2024-01-16T04:31:10;97845.94;;;-3.81;82.04
84797;BME280;75028;51.374;21.078;2024-01-16T04:33:42;97843.81;;;-3.89;82.57
84797;BME280;75028;51.374;21.078;2024-01-16T04:36:08;97858.41;;;-3.88;83.93
84797;BME280;75028;51.374;21.078;2024-01-16T04:38:35;97864.28;;;-3.86;82.96
84797;BME280;75028;51.374;21.078;2024-01-16T04:41:04;97863.66;;;-3.75;84.00
84797;BME280;75028;51.374;21.078;2024-01-16T04:43:30;97863.00;;;-3.79;82.70
84797;BME280;75028;51.374;21.078;2024-01-16T04:45:56;97870.53;;;-3.62;83.71
84797;BME280;75028;51.374;21.078;2024-01-16T04:48:22;97873.50;;;-3.54;82.93
84797;BME280;75028;51.374;21.078;2024-01-16T04:50:48;97867.31;;;-3.51;82.96
84797;BME280;75028;51.374;21.078;2024-01-16T04:53:15;97875.81;;;-3.49;83.08
84797;BME280;75028;51.374;21.078;2024-01-16T04:55:42;97885.72;;;-3.43;82.95
84797;BME280;75028;51.374;21.078;2024-01-16T04:58:08;97882.97;;;-3.40;83.30
84797;BME280;75028;51.374;21.078;2024-01-16T05:00:34;97865.34;;;-3.48;82.71
84797;BME280;75028;51.374;21.078;2024-01-16T05:03:03;97889.50;;;-3.35;82.21
84797;BME280;75028;51.374;21.078;2024-01-16T05:05:30;97885.81;;;-3.31;82.59
84797;BME280;75028;51.374;21.078;2024-01-16T05:07:56;97885.50;;;-3.26;82.31
84797;BME280;75028;51.374;21.078;2024-01-16T05:10:22;97889.41;;;-3.33;82.60
84797;BME280;75028;51.374;21.078;2024-01-16T05:12:48;97880.94;;;-3.35;82.79
84797;BME280;75028;51.374;21.078;2024-01-16T05:15:15;97899.84;;;-3.21;83.29
84797;BME280;75028;51.374;21.078;2024-01-16T05:17:40;97898.53;;;-3.28;82.20
84797;BME280;75028;51.374;21.078;2024-01-16T05:20:07;97901.19;;;-3.29;81.98
84797;BME280;75028;51.374;21.078;2024-01-16T05:22:33;97908.34;;;-3.33;82.37
84797;BME280;75028;51.374;21.078;2024-01-16T05:25:00;97914.34;;;-3.32;82.89
84797;BME280;75028;51.374;21.078;2024-01-16T05:27:26;97915.53;;;-3.38;82.39
84797;BME280;75028;51.374;21.078;2024-01-16T05:29:52;97922.28;;;-3.35;82.58
84797;BME280;75028;51.374;21.078;2024-01-16T05:32:18;97913.53;;;-3.47;81.54
84797;BME280;75028;51.374;21.078;2024-01-16T05:34:44;97925.75;;;-3.36;82.42
84797;BME280;75028;51.374;21.078;2024-01-16T05:37:10;97935.81;;;-3.32;80.96
84797;BME280;75028;51.374;21.078;2024-01-16T05:39:36;97934.25;;;-3.34;83.17
84797;BME280;75028;51.374;21.078;2024-01-16T05:42:02;97933.50;;;-3.36;81.86
84797;BME280;75028;51.374;21.078;2024-01-16T05:44:29;97934.00;;;-3.44;82.75
84797;BME280;75028;51.374;21.078;2024-01-16T05:46:55;97940.63;;;-3.40;82.37
84797;BME280;75028;51.374;21.078;2024-01-16T05:49:21;97952.34;;;-3.34;82.28
84797;BME280;75028;51.374;21.078;2024-01-16T05:51:47;97944.50;;;-3.47;82.22
84797;BME280;75028;51.374;21.078;2024-01-16T05:54:13;97950.97;;;-3.40;81.99
84797;BME280;75028;51.374;21.078;2024-01-16T05:56:39;97953.16;;;-3.48;82.42
84797;BME280;75028;51.374;21.078;2024-01-16T05:59:05;97964.25;;;-3.46;82.46
84797;BME280;75028;51.374;21.078;2024-01-16T06:01:32;97971.16;;;-3.46;82.24
84797;BME280;75028;51.374;21.078;2024-01-16T06:03:59;97973.72;;;-3.46;82.44
84797;BME280;75028;51.374;21.078;2024-01-16T06:06:25;97972.53;;;-3.55;81.63
84797;BME280;75028;51.374;21.078;2024-01-16T06:08:52;97979.38;;;-3.54;82.58
84797;BME280;75028;51.374;21.078;2024-01-16T06:11:17;97993.69;;;-3.48;83.42
84797;BME280;75028;51.374;21.078;2024-01-16T06:13:45;97993.19;;;-3.55;82.92
84797;BME280;75028;51.374;21.078;2024-01-16T06:16:11;98006.41;;;-3.59;82.38
84797;BME280;75028;51.374;21.078;2024-01-16T06:18:37;98018.38;;;-3.72;82.71
84797;BME280;75028;51.374;21.078;2024-01-16T06:21:04;98015.13;;;-3.76;82.14
84797;BME280;75028;51.374;21.078;2024-01-16T06:23:30;98020.28;;;-3.76;82.55
84797;BME280;75028;51.374;21.078;2024-01-16T06:25:56;98027.09;;;-3.75;82.96
84797;BME280;75028;51.374;21.078;2024-01-16T06:28:22;98029.69;;;-3.75;83.10
84797;BME280;75028;51.374;21.078;2024-01-16T06:30:48;98026.38;;;-3.77;82.65
84797;BME280;75028;51.374;21.078;2024-01-16T06:33:14;98030.91;;;-3.66;82.85
84797;BME280;75028;51.374;21.078;2024-01-16T06:35:40;98035.94;;;-3.79;82.30
84797;BME280;75028;51.374;21.078;2024-01-16T06:38:06;98055.91;;;-3.67;82.85
84797;BME280;75028;51.374;21.078;2024-01-16T06:40:32;98021.28;;;-3.92;82.57
84797;BME280;75028;51.374;21.078;2024-01-16T06:42:58;98045.53;;;-3.81;83.20
84797;BME280;75028;51.374;21.078;2024-01-16T06:45:24;98070.47;;;-3.66;83.14
84797;BME280;75028;51.374;21.078;2024-01-16T06:47:52;98069.44;;;-3.63;82.24
84797;BME280;75028;51.374;21.078;2024-01-16T06:50:18;98058.31;;;-3.64;82.80
84797;BME280;75028;51.374;21.078;2024-01-16T06:52:45;98068.09;;;-3.55;82.09
84797;BME280;75028;51.374;21.078;2024-01-16T06:55:11;98074.00;;;-3.53;82.09
84797;BME280;75028;51.374;21.078;2024-01-16T06:57:37;98073.06;;;-3.66;82.56
84797;BME280;75028;51.374;21.078;2024-01-16T07:00:03;98086.38;;;-3.58;82.44
84797;BME280;75028;51.374;21.078;2024-01-16T07:02:33;98084.59;;;-3.57;82.79
84797;BME280;75028;51.374;21.078;2024-01-16T07:04:59;98075.63;;;-3.66;82.08
84797;BME280;75028;51.374;21.078;2024-01-16T07:07:25;98096.88;;;-3.61;82.18
84797;BME280;75028;51.374;21.078;2024-01-16T07:09:52;98099.28;;;-3.58;81.78
84797;BME280;75028;51.374;21.078;2024-01-16T07:12:18;98101.66;;;-3.55;81.59
84797;BME280;75028;51.374;21.078;2024-01-16T07:14:44;98112.19;;;-3.58;81.94
84797;BME280;75028;51.374;21.078;2024-01-16T07:17:10;98119.56;;;-3.52;80.43
84797;BME280;75028;51.374;21.078;2024-01-16T07:19:36;98097.38;;;-3.70;80.44
84797;BME280;75028;51.374;21.078;2024-01-16T07:22:02;98118.50;;;-3.63;80.39
84797;BME280;75028;51.374;21.078;2024-01-16T07:24:28;98119.28;;;-3.61;80.37
84797;BME280;75028;51.374;21.078;2024-01-16T07:26:54;98120.19;;;-3.62;80.89
84797;BME280;75028;51.374;21.078;2024-01-16T07:29:20;98128.59;;;-3.59;81.78
84797;BME280;75028;51.374;21.078;2024-01-16T07:31:47;98136.69;;;-3.65;82.79
84797;BME280;75028;51.374;21.078;2024-01-16T07:34:13;98145.19;;;-3.63;81.52
84797;BME280;75028;51.374;21.078;2024-01-16T07:36:43;98148.69;;;-3.64;81.67
84797;BME280;75028;51.374;21.078;2024-01-16T07:39:09;98150.44;;;-3.64;81.42
84797;BME280;75028;51.374;21.078;2024-01-16T07:41:35;98143.63;;;-3.65;81.20
84797;BME280;75028;51.374;21.078;2024-01-16T07:44:01;98140.28;;;-3.67;81.84
84797;BME280;75028;51.374;21.078;2024-01-16T07:46:28;98146.09;;;-3.64;80.96
84797;BME280;75028;51.374;21.078;2024-01-16T07:48:54;98133.28;;;-3.65;80.59
84797;BME280;75028;51.374;21.078;2024-01-16T07:51:20;98150.03;;;-3.43;81.29
84797;BME280;75028;51.374;21.078;2024-01-16T07:53:46;98156.19;;;-3.30;79.81
84797;BME280;75028;51.374;21.078;2024-01-16T07:56:14;98165.22;;;-3.23;79.57
84797;BME280;75028;51.374;21.078;2024-01-16T07:58:40;98168.19;;;-3.15;79.10
84797;BME280;75028;51.374;21.078;2024-01-16T08:01:07;98165.41;;;-3.26;80.06
84797;BME280;75028;51.374;21.078;2024-01-16T08:03:33;98162.28;;;-3.31;78.90
84797;BME280;75028;51.374;21.078;2024-01-16T08:05:59;98178.53;;;-3.44;79.81
84797;BME280;75028;51.374;21.078;2024-01-16T08:08:25;98171.31;;;-3.53;79.14
84797;BME280;75028;51.374;21.078;2024-01-16T08:10:51;98169.00;;;-3.58;79.89
84797;BME280;75028;51.374;21.078;2024-01-16T08:13:17;98181.72;;;-3.39;80.06
84797;BME280;75028;51.374;21.078;2024-01-16T08:15:43;98174.16;;;-3.28;79.22
84797;BME280;75028;51.374;21.078;2024-01-16T08:18:09;98186.88;;;-3.10;78.35
84797;BME280;75028;51.374;21.078;2024-01-16T08:20:35;98185.94;;;-3.09;78.16
84797;BME280;75028;51.374;21.078;2024-01-16T08:23:02;98188.97;;;-3.02;77.74
84797;BME280;75028;51.374;21.078;2024-01-16T08:25:27;98195.09;;;-2.89;77.73
84797;BME280;75028;51.374;21.078;2024-01-16T08:27:54;98196.22;;;-2.93;77.07
84797;BME280;75028;51.374;21.078;2024-01-16T08:30:19;98205.00;;;-2.82;77.96
84797;BME280;75028;51.374;21.078;2024-01-16T08:32:46;98209.72;;;-2.74;76.67
84797;BME280;75028;51.374;21.078;2024-01-16T08:35:12;98212.41;;;-2.62;76.73
84797;BME280;75028;51.374;21.078;2024-01-16T08:37:38;98218.03;;;-2.69;76.85
84797;BME280;75028;51.374;21.078;2024-01-16T08:40:05;98227.94;;;-2.62;75.80
84797;BME280;75028;51.374;21.078;2024-01-16T08:42:32;98230.69;;;-2.65;77.50
84797;BME280;75028;51.374;21.078;2024-01-16T08:44:58;98234.13;;;-2.64;76.51
84797;BME280;75028;51.374;21.078;2024-01-16T08:47:24;98238.44;;;-2.79;76.57
84797;BME280;75028;51.374;21.078;2024-01-16T08:49:50;98252.41;;;-2.81;76.78
84797;BME280;75028;51.374;21.078;2024-01-16T08:52:16;98261.13;;;-2.84;76.93
84797;BME280;75028;51.374;21.078;2024-01-16T08:54:43;98261.13;;;-2.84;78.93
84797;BME280;75028;51.374;21.078;2024-01-16T08:57:09;98275.63;;;-2.95;76.91
84797;BME280;75028;51.374;21.078;2024-01-16T08:59:36;98276.78;;;-2.85;77.51
84797;BME280;75028;51.374;21.078;2024-01-16T09:02:02;98269.13;;;-2.73;77.18
84797;BME280;75028;51.374;21.078;2024-01-16T09:04:29;98268.38;;;-2.75;76.82
84797;BME280;75028;51.374;21.078;2024-01-16T09:06:55;98275.75;;;-2.83;77.13
84797;BME280;75028;51.374;21.078;2024-01-16T09:09:21;98277.75;;;-2.88;76.70
84797;BME280;75028;51.374;21.078;2024-01-16T09:11:47;98276.84;;;-2.87;76.89
84797;BME280;75028;51.374;21.078;2024-01-16T09:14:13;98272.22;;;-2.82;76.30
84797;BME280;75028;51.374;21.078;2024-01-16T09:16:39;98270.25;;;-2.63;76.88
84797;BME280;75028;51.374;21.078;2024-01-16T09:19:06;98273.78;;;-2.49;76.41
84797;BME280;75028;51.374;21.078;2024-01-16T09:21:32;98268.94;;;-2.70;77.28
84797;BME280;75028;51.374;21.078;2024-01-16T09:23:58;98281.31;;;-2.75;76.83
84797;BME280;75028;51.374;21.078;2024-01-16T09:26:24;98282.16;;;-2.74;76.56
84797;BME280;75028;51.374;21.078;2024-01-16T09:28:50;98274.78;;;-2.38;75.23
84797;BME280;75028;51.374;21.078;2024-01-16T09:31:16;98269.09;;;-2.29;75.96
84797;BME280;75028;51.374;21.078;2024-01-16T09:33:42;98274.69;;;-2.36;75.32
84797;BME280;75028;51.374;21.078;2024-01-16T09:36:09;98283.81;;;-2.29;75.60
84797;BME280;75028;51.374;21.078;2024-01-16T09:38:36;98280.91;;;-2.39;74.86
84797;BME280;75028;51.374;21.078;2024-01-16T09:41:02;98284.06;;;-2.48;75.70
84797;BME280;75028;51.374;21.078;2024-01-16T09:43:29;98284.59;;;-2.57;76.33
84797;BME280;75028;51.374;21.078;2024-01-16T09:46:00;98285.59;;;-2.59;76.16
84797;BME280;75028;51.374;21.078;2024-01-16T09:48:30;98294.44;;;-2.64;76.28
84797;BME280;75028;51.374;21.078;2024-01-16T09:50:58;98298.03;;;-2.66;76.62
84797;BME280;75028;51.374;21.078;2024-01-16T09:53:24;98302.56;;;-2.70;75.03
84797;BME280;75028;51.374;21.078;2024-01-16T09:55:54;98296.28;;;-2.66;74.34
84797;BME280;75028;51.374;21.078;2024-01-16T09:58:20;98299.44;;;-2.61;74.05
84797;BME280;75028;51.374;21.078;2024-01-16T10:00:47;98305.72;;;-2.65;74.11
84797;BME280;75028;51.374;21.078;2024-01-16T10:03:14;98308.97;;;-2.61;73.40
84797;BME280;75028;51.374;21.078;2024-01-16T10:05:44;98307.69;;;-2.54;72.87
84797;BME280;75028;51.374;21.078;2024-01-16T10:08:10;98315.66;;;-2.43;73.42
84797;BME280;75028;51.374;21.078;2024-01-16T10:10:37;98319.44;;;-2.34;72.59
84797;BME280;75028;51.374;21.078;2024-01-16T10:13:03;98313.72;;;-2.39;72.50
84797;BME280;75028;51.374;21.078;2024-01-16T10:15:31;98321.38;;;-2.38;73.35
84797;BME280;75028;51.374;21.078;2024-01-16T10:17:57;98321.28;;;-2.36;74.93
84797;BME280;75028;51.374;21.078;2024-01-16T10:20:33;98324.81;;;-2.37;74.54
84797;BME280;75028;51.374;21.078;2024-01-16T10:22:59;98329.53;;;-2.30;72.76
84797;BME280;75028;51.374;21.078;2024-01-16T10:25:26;98332.91;;;-2.14;73.88
84797;BME280;75028;51.374;21.078;2024-01-16T10:28:03;98334.91;;;-2.05;73.48
84797;BME280;75028;51.374;21.078;2024-01-16T10:30:30;98340.66;;;-1.72;71.08
84797;BME280;75028;51.374;21.078;2024-01-16T10:33:12;98335.06;;;-1.38;68.79
84797;BME280;75028;51.374;21.078;2024-01-16T10:35:39;98342.38;;;-1.30;67.92
84797;BME280;75028;51.374;21.078;2024-01-16T10:38:05;98339.72;;;-0.90;68.48
84797;BME280;75028;51.374;21.078;2024-01-16T10:40:31;98347.25;;;-0.46;65.89
84797;BME280;75028;51.374;21.078;2024-01-16T10:43:03;98350.47;;;-0.43;64.72
84797;BME280;75028;51.374;21.078;2024-01-16T10:45:31;98355.81;;;-0.32;65.45
84797;BME280;75028;51.374;21.078;2024-01-16T10:48:04;98356.75;;;-0.08;64.30
84797;BME280;75028;51.374;21.078;2024-01-16T10:50:35;98352.41;;;0.18;63.61
84797;BME280;75028;51.374;21.078;2024-01-16T10:53:05;98358.22;;;-0.04;65.49
84797;BME280;75028;51.374;21.078;2024-01-16T10:55:52;98349.16;;;0.02;64.61
84797;BME280;75028;51.374;21.078;2024-01-16T10:58:22;98352.16;;;-0.29;65.31
84797;BME280;75028;51.374;21.078;2024-01-16T11:00:52;98356.03;;;-0.10;65.88
84797;BME280;75028;51.374;21.078;2024-01-16T11:03:29;98357.78;;;-0.23;65.39
84797;BME280;75028;51.374;21.078;2024-01-16T11:06:00;98360.06;;;-0.18;66.89
84797;BME280;75028;51.374;21.078;2024-01-16T11:08:27;98356.84;;;-0.22;65.69
84797;BME280;75028;51.374;21.078;2024-01-16T11:10:58;98366.41;;;0.03;64.81
84797;BME280;75028;51.374;21.078;2024-01-16T11:13:25;98364.84;;;-0.12;62.84
84797;BME280;75028;51.374;21.078;2024-01-16T11:15:52;98363.25;;;-0.40;64.25
84797;BME280;75028;51.374;21.078;2024-01-16T11:18:19;98372.84;;;-0.28;63.99
84797;BME280;75028;51.374;21.078;2024-01-16T11:20:45;98380.09;;;-0.33;63.86
84797;BME280;75028;51.374;21.078;2024-01-16T11:23:12;98378.72;;;-0.77;64.46
84797;BME280;75028;51.374;21.078;2024-01-16T11:25:39;98390.75;;;-1.03;67.24
84797;BME280;75028;51.374;21.078;2024-01-16T11:28:09;98386.06;;;-0.84;64.48
84797;BME280;75028;51.374;21.078;2024-01-16T11:30:37;98395.19;;;-0.78;64.62
84797;BME280;75028;51.374;21.078;2024-01-16T11:33:03;98391.38;;;-0.99;65.22
84797;BME280;75028;51.374;21.078;2024-01-16T11:35:34;98402.41;;;-1.10;66.83
84797;BME280;75028;51.374;21.078;2024-01-16T11:38:04;98408.69;;;-1.00;66.71
84797;BME280;75028;51.374;21.078;2024-01-16T11:40:32;98412.59;;;-1.07;65.76
84797;BME280;75028;51.374;21.078;2024-01-16T11:42:58;98410.59;;;-1.16;65.87
84797;BME280;75028;51.374;21.078;2024-01-16T11:48:16;98416.38;;;-1.53;65.39
84797;BME280;75028;51.374;21.078;2024-01-16T11:50:43;98414.97;;;-1.44;68.15
84797;BME280;75028;51.374;21.078;2024-01-16T11:53:09;98411.63;;;-1.46;64.72
84797;BME280;75028;51.374;21.078;2024-01-16T12:01:29;98433.19;;;-1.18;66.86
84797;BME280;75028;51.374;21.078;2024-01-16T12:04:05;98426.47;;;-0.94;66.73
84797;BME280;75028;51.374;21.078;2024-01-16T12:06:34;98423.97;;;-0.95;65.05
84797;BME280;75028;51.374;21.078;2024-01-16T12:09:27;98425.56;;;-0.93;64.56
84797;BME280;75028;51.374;21.078;2024-01-16T12:11:57;98433.69;;;-0.58;66.79
84797;BME280;75028;51.374;21.078;2024-01-16T12:14:32;98436.03;;;-0.41;63.05
84797;BME280;75028;51.374;21.078;2024-01-16T12:17:11;98429.13;;;-0.81;63.13
84797;BME280;75028;51.374;21.078;2024-01-16T12:19:38;98445.13;;;-1.15;61.88
84797;BME280;75028;51.374;21.078;2024-01-16T12:22:08;98438.28;;;-1.16;65.34
84797;BME280;75028;51.374;21.078;2024-01-16T12:24:36;98440.31;;;-1.07;64.43
84797;BME280;75028;51.374;21.078;2024-01-16T12:27:03;98444.09;;;-1.27;64.11
84797;BME280;75028;51.374;21.078;2024-01-16T12:29:30;98438.56;;;-1.49;64.15
84797;BME280;75028;51.374;21.078;2024-01-16T12:32:10;98445.59;;;-1.65;66.48
84797;BME280;75028;51.374;21.078;2024-01-16T12:34:47;98451.03;;;-1.83;65.44
84797;BME280;75028;51.374;21.078;2024-01-16T12:37:14;98444.16;;;-1.98;65.23
84797;BME280;75028;51.374;21.078;2024-01-16T12:39:41;98458.50;;;-1.93;67.88
84797;BME280;75028;51.374;21.078;2024-01-16T12:42:10;98452.91;;;-2.01;67.52
84797;BME280;75028;51.374;21.078;2024-01-16T12:44:37;98453.69;;;-1.99;67.79
84797;BME280;75028;51.374;21.078;2024-01-16T12:47:03;98455.63;;;-2.02;67.26
84797;BME280;75028;51.374;21.078;2024-01-16T12:49:30;98463.81;;;-2.10;67.72
84797;BME280;75028;51.374;21.078;2024-01-16T12:52:18;98455.97;;;-2.08;68.69
84797;BME280;75028;51.374;21.078;2024-01-16T12:54:45;98449.31;;;-2.12;70.04
84797;BME280;75028;51.374;21.078;2024-01-16T12:57:17;98458.94;;;-2.00;67.63
84797;BME280;75028;51.374;21.078;2024-01-16T12:59:42;98456.53;;;-2.03;66.64